sensor_id;sensor_type;location;lat;lon;timestamp;temperature;humidity
26641;DHT22;14269;47.358;0.724;2023-04-16T00:01:29;9.0;71.0
26641;DHT22;14269;47.358;0.724;2023-04-16T00:04:01;10.0;71.0
26641;DHT22;14269;47.358;0.724;2023-04-16T00:06:32;9.0;71.0
26641;DHT22;14269;47.358;0.724;2023-04-16T00:09:04;9.0;71.0
26641;DHT22;14269;47.358;0.724;2023-04-16T00:11:36;9.0;71.0
26641;DHT22;14269;47.358;0.724;2023-04-16T00:14:07;9.0;71.0
26641;DHT22;14269;47.358;0.724;2023-04-16T00:16:39;9.0;72.0
26641;DHT22;14269;47.358;0.724;2023-04-16T00:19:10;9.0;72.0
26641;DHT22;14269;47.358;0.724;2023-04-16T00:21:42;9.0;71.0
26641;DHT22;14269;47.358;0.724;2023-04-16T00:24:14;9.0;72.0
26641;DHT22;14269;47.358;0.724;2023-04-16T00:26:45;9.0;72.0
26641;DHT22;14269;47.358;0.724;2023-04-16T00:29:17;9.0;72.0
26641;DHT22;14269;47.358;0.724;2023-04-16T00:31:49;9.0;72.0
26641;DHT22;14269;47.358;0.724;2023-04-16T00:34:20;9.0;72.0
26641;DHT22;14269;47.358;0.724;2023-04-16T00:36:52;9.0;73.0
26641;DHT22;14269;47.358;0.724;2023-04-16T00:39:24;9.0;73.0
26641;DHT22;14269;47.358;0.724;2023-04-16T00:41:55;9.0;73.0
26641;DHT22;14269;47.358;0.724;2023-04-16T00:44:28;9.0;73.0
26641;DHT22;14269;47.358;0.724;2023-04-16T00:47:09;9.0;73.0
26641;DHT22;14269;47.358;0.724;2023-04-16T00:49:40;9.0;73.0
26641;DHT22;14269;47.358;0.724;2023-04-16T00:52:12;9.0;73.0
26641;DHT22;14269;47.358;0.724;2023-04-16T00:54:45;9.0;73.0
26641;DHT22;14269;47.358;0.724;2023-04-16T00:57:16;9.0;73.0
26641;DHT22;14269;47.358;0.724;2023-04-16T00:59:47;9.0;73.0
26641;DHT22;14269;47.358;0.724;2023-04-16T01:02:19;9.0;74.0
26641;DHT22;14269;47.358;0.724;2023-04-16T01:04:50;9.0;74.0
26641;DHT22;14269;47.358;0.724;2023-04-16T01:07:22;9.0;74.0
26641;DHT22;14269;47.358;0.724;2023-04-16T01:09:54;9.0;75.0
26641;DHT22;14269;47.358;0.724;2023-04-16T01:12:35;9.0;75.0
26641;DHT22;14269;47.358;0.724;2023-04-16T01:15:08;9.0;75.0
26641;DHT22;14269;47.358;0.724;2023-04-16T01:17:39;9.0;75.0
26641;DHT22;14269;47.358;0.724;2023-04-16T01:20:11;9.0;75.0
26641;DHT22;14269;47.358;0.724;2023-04-16T01:22:42;9.0;74.0
26641;DHT22;14269;47.358;0.724;2023-04-16T01:25:14;9.0;75.0
26641;DHT22;14269;47.358;0.724;2023-04-16T01:27:48;9.0;75.0
26641;DHT22;14269;47.358;0.724;2023-04-16T01:30:27;9.0;75.0
26641;DHT22;14269;47.358;0.724;2023-04-16T01:32:59;9.0;75.0
26641;DHT22;14269;47.358;0.724;2023-04-16T01:35:30;9.0;75.0
26641;DHT22;14269;47.358;0.724;2023-04-16T01:38:02;9.0;75.0
26641;DHT22;14269;47.358;0.724;2023-04-16T01:40:34;9.0;75.0
26641;DHT22;14269;47.358;0.724;2023-04-16T01:43:05;9.0;74.0
26641;DHT22;14269;47.358;0.724;2023-04-16T01:45:37;9.0;74.0
26641;DHT22;14269;47.358;0.724;2023-04-16T01:48:08;9.0;75.0
26641;DHT22;14269;47.358;0.724;2023-04-16T01:50:40;9.0;74.0
26641;DHT22;14269;47.358;0.724;2023-04-16T01:53:12;9.0;75.0
26641;DHT22;14269;47.358;0.724;2023-04-16T01:55:43;9.0;75.0
26641;DHT22;14269;47.358;0.724;2023-04-16T01:58:15;9.0;75.0
26641;DHT22;14269;47.358;0.724;2023-04-16T02:00:47;9.0;75.0
26641;DHT22;14269;47.358;0.724;2023-04-16T02:03:18;8.0;75.0
26641;DHT22;14269;47.358;0.724;2023-04-16T02:05:50;8.0;75.0
26641;DHT22;14269;47.358;0.724;2023-04-16T02:08:22;8.0;76.0
26641;DHT22;14269;47.358;0.724;2023-04-16T02:10:54;8.0;76.0
26641;DHT22;14269;47.358;0.724;2023-04-16T02:13:35;8.0;76.0
26641;DHT22;14269;47.358;0.724;2023-04-16T02:16:07;8.0;76.0
26641;DHT22;14269;47.358;0.724;2023-04-16T02:18:38;8.0;76.0
26641;DHT22;14269;47.358;0.724;2023-04-16T02:21:10;8.0;76.0
26641;DHT22;14269;47.358;0.724;2023-04-16T02:23:44;8.0;77.0
26641;DHT22;14269;47.358;0.724;2023-04-16T02:26:24;8.0;77.0
26641;DHT22;14269;47.358;0.724;2023-04-16T02:29:05;8.0;77.0
26641;DHT22;14269;47.358;0.724;2023-04-16T02:31:37;8.0;78.0
26641;DHT22;14269;47.358;0.724;2023-04-16T02:34:08;8.0;78.0
26641;DHT22;14269;47.358;0.724;2023-04-16T02:36:40;8.0;78.0
26641;DHT22;14269;47.358;0.724;2023-04-16T02:39:12;8.0;78.0
26641;DHT22;14269;47.358;0.724;2023-04-16T02:41:43;8.0;78.0
26641;DHT22;14269;47.358;0.724;2023-04-16T02:44:15;8.0;78.0
26641;DHT22;14269;47.358;0.724;2023-04-16T02:46:47;8.0;78.0
26641;DHT22;14269;47.358;0.724;2023-04-16T02:49:18;8.0;78.0
26641;DHT22;14269;47.358;0.724;2023-04-16T02:51:50;8.0;79.0
26641;DHT22;14269;47.358;0.724;2023-04-16T02:54:22;8.0;79.0
26641;DHT22;14269;47.358;0.724;2023-04-16T02:56:53;8.0;78.0
26641;DHT22;14269;47.358;0.724;2023-04-16T02:59:26;8.0;79.0
26641;DHT22;14269;47.358;0.724;2023-04-16T03:01:56;8.0;79.0
26641;DHT22;14269;47.358;0.724;2023-04-16T03:04:28;8.0;79.0
26641;DHT22;14269;47.358;0.724;2023-04-16T03:07:00;8.0;79.0
26641;DHT22;14269;47.358;0.724;2023-04-16T03:09:31;8.0;79.0
26641;DHT22;14269;47.358;0.724;2023-04-16T03:12:03;8.0;79.0
26641;DHT22;14269;47.358;0.724;2023-04-16T03:14:35;8.0;79.0
26641;DHT22;14269;47.358;0.724;2023-04-16T03:17:06;8.0;79.0
26641;DHT22;14269;47.358;0.724;2023-04-16T03:19:38;8.0;79.0
26641;DHT22;14269;47.358;0.724;2023-04-16T03:22:10;8.0;79.0
26641;DHT22;14269;47.358;0.724;2023-04-16T03:24:41;8.0;79.0
26641;DHT22;14269;47.358;0.724;2023-04-16T03:27:13;8.0;79.0
26641;DHT22;14269;47.358;0.724;2023-04-16T03:29:45;8.0;79.0
26641;DHT22;14269;47.358;0.724;2023-04-16T03:32:17;8.0;79.0
26641;DHT22;14269;47.358;0.724;2023-04-16T03:34:48;8.0;79.0
26641;DHT22;14269;47.358;0.724;2023-04-16T03:37:19;8.0;79.0
26641;DHT22;14269;47.358;0.724;2023-04-16T03:39:51;8.0;79.0
26641;DHT22;14269;47.358;0.724;2023-04-16T03:42:23;8.0;79.0
26641;DHT22;14269;47.358;0.724;2023-04-16T03:44:54;8.0;79.0
26641;DHT22;14269;47.358;0.724;2023-04-16T03:47:26;8.0;79.0
26641;DHT22;14269;47.358;0.724;2023-04-16T03:49:58;7.0;78.0
26641;DHT22;14269;47.358;0.724;2023-04-16T03:52:29;8.0;78.0
26641;DHT22;14269;47.358;0.724;2023-04-16T03:55:03;8.0;79.0
26641;DHT22;14269;47.358;0.724;2023-04-16T03:57:43;8.0;78.0
26641;DHT22;14269;47.358;0.724;2023-04-16T04:00:15;8.0;78.0
26641;DHT22;14269;47.358;0.724;2023-04-16T04:02:46;7.0;78.0
26641;DHT22;14269;47.358;0.724;2023-04-16T04:05:18;7.0;78.0
26641;DHT22;14269;47.358;0.724;2023-04-16T04:07:49;7.0;78.0
26641;DHT22;14269;47.358;0.724;2023-04-16T04:10:21;7.0;78.0
26641;DHT22;14269;47.358;0.724;2023-04-16T04:12:53;7.0;79.0
26641;DHT22;14269;47.358;0.724;2023-04-16T04:15:24;7.0;78.0
26641;DHT22;14269;47.358;0.724;2023-04-16T04:17:56;7.0;79.0
26641;DHT22;14269;47.358;0.724;2023-04-16T04:20:28;7.0;78.0
26641;DHT22;14269;47.358;0.724;2023-04-16T04:22:59;7.0;78.0
26641;DHT22;14269;47.358;0.724;2023-04-16T04:25:31;7.0;78.0
26641;DHT22;14269;47.358;0.724;2023-04-16T04:28:03;7.0;78.0
26641;DHT22;14269;47.358;0.724;2023-04-16T04:30:35;7.0;78.0
26641;DHT22;14269;47.358;0.724;2023-04-16T04:33:06;7.0;78.0
26641;DHT22;14269;47.358;0.724;2023-04-16T04:35:37;7.0;77.0
26641;DHT22;14269;47.358;0.724;2023-04-16T04:38:09;7.0;78.0
26641;DHT22;14269;47.358;0.724;2023-04-16T04:40:41;7.0;78.0
26641;DHT22;14269;47.358;0.724;2023-04-16T04:43:13;7.0;78.0
26641;DHT22;14269;47.358;0.724;2023-04-16T04:45:45;7.0;78.0
26641;DHT22;14269;47.358;0.724;2023-04-16T04:48:16;7.0;78.0
26641;DHT22;14269;47.358;0.724;2023-04-16T04:50:47;7.0;77.0
26641;DHT22;14269;47.358;0.724;2023-04-16T04:53:19;8.0;77.0
26641;DHT22;14269;47.358;0.724;2023-04-16T04:55:51;8.0;77.0
26641;DHT22;14269;47.358;0.724;2023-04-16T04:58:22;8.0;77.0
26641;DHT22;14269;47.358;0.724;2023-04-16T05:00:54;8.0;77.0
26641;DHT22;14269;47.358;0.724;2023-04-16T05:03:26;8.0;76.0
26641;DHT22;14269;47.358;0.724;2023-04-16T05:05:57;8.0;76.0
26641;DHT22;14269;47.358;0.724;2023-04-16T05:08:29;8.0;75.0
26641;DHT22;14269;47.358;0.724;2023-04-16T05:11:01;8.0;75.0
26641;DHT22;14269;47.358;0.724;2023-04-16T05:13:32;8.0;74.0
26641;DHT22;14269;47.358;0.724;2023-04-16T05:16:05;8.0;74.0
26641;DHT22;14269;47.358;0.724;2023-04-16T05:18:35;8.0;74.0
26641;DHT22;14269;47.358;0.724;2023-04-16T05:21:07;8.0;74.0
26641;DHT22;14269;47.358;0.724;2023-04-16T05:23:39;8.0;74.0
26641;DHT22;14269;47.358;0.724;2023-04-16T05:26:10;8.0;73.0
26641;DHT22;14269;47.358;0.724;2023-04-16T05:28:42;8.0;73.0
26641;DHT22;14269;47.358;0.724;2023-04-16T05:31:14;8.0;73.0
26641;DHT22;14269;47.358;0.724;2023-04-16T05:33:45;8.0;73.0
26641;DHT22;14269;47.358;0.724;2023-04-16T05:36:17;8.0;73.0
26641;DHT22;14269;47.358;0.724;2023-04-16T05:38:49;8.0;73.0
26641;DHT22;14269;47.358;0.724;2023-04-16T05:41:20;8.0;73.0
26641;DHT22;14269;47.358;0.724;2023-04-16T05:43:52;8.0;73.0
26641;DHT22;14269;47.358;0.724;2023-04-16T05:46:24;8.0;73.0
26641;DHT22;14269;47.358;0.724;2023-04-16T05:48:55;8.0;73.0
26641;DHT22;14269;47.358;0.724;2023-04-16T05:51:28;8.0;73.0
26641;DHT22;14269;47.358;0.724;2023-04-16T05:53:58;8.0;73.0
26641;DHT22;14269;47.358;0.724;2023-04-16T05:56:30;8.0;73.0
26641;DHT22;14269;47.358;0.724;2023-04-16T05:59:02;8.0;73.0
26641;DHT22;14269;47.358;0.724;2023-04-16T06:01:33;9.0;73.0
26641;DHT22;14269;47.358;0.724;2023-04-16T06:04:05;9.0;73.0
26641;DHT22;14269;47.358;0.724;2023-04-16T06:06:37;9.0;73.0
26641;DHT22;14269;47.358;0.724;2023-04-16T06:09:18;9.0;74.0
26641;DHT22;14269;47.358;0.724;2023-04-16T06:11:50;9.0;74.0
26641;DHT22;14269;47.358;0.724;2023-04-16T06:14:22;9.0;74.0
26641;DHT22;14269;47.358;0.724;2023-04-16T06:16:53;9.0;74.0
26641;DHT22;14269;47.358;0.724;2023-04-16T06:19:25;9.0;74.0
26641;DHT22;14269;47.358;0.724;2023-04-16T06:21:57;9.0;74.0
26641;DHT22;14269;47.358;0.724;2023-04-16T06:24:28;9.0;74.0
26641;DHT22;14269;47.358;0.724;2023-04-16T06:27:00;9.0;74.0
26641;DHT22;14269;47.358;0.724;2023-04-16T06:29:32;9.0;74.0
26641;DHT22;14269;47.358;0.724;2023-04-16T06:32:04;9.0;74.0
26641;DHT22;14269;47.358;0.724;2023-04-16T06:34:36;9.0;74.0
26641;DHT22;14269;47.358;0.724;2023-04-16T06:37:07;9.0;74.0
26641;DHT22;14269;47.358;0.724;2023-04-16T06:39:38;9.0;73.0
26641;DHT22;14269;47.358;0.724;2023-04-16T06:42:10;9.0;73.0
26641;DHT22;14269;47.358;0.724;2023-04-16T06:44:42;9.0;73.0
26641;DHT22;14269;47.358;0.724;2023-04-16T06:47:13;9.0;73.0
26641;DHT22;14269;47.358;0.724;2023-04-16T06:49:46;9.0;73.0
26641;DHT22;14269;47.358;0.724;2023-04-16T06:52:16;9.0;73.0
26641;DHT22;14269;47.358;0.724;2023-04-16T06:54:48;9.0;73.0
26641;DHT22;14269;47.358;0.724;2023-04-16T06:57:20;9.0;73.0
26641;DHT22;14269;47.358;0.724;2023-04-16T06:59:51;9.0;72.0
26641;DHT22;14269;47.358;0.724;2023-04-16T07:02:23;9.0;72.0
26641;DHT22;14269;47.358;0.724;2023-04-16T07:04:55;9.0;72.0
26641;DHT22;14269;47.358;0.724;2023-04-16T07:07:26;9.0;72.0
26641;DHT22;14269;47.358;0.724;2023-04-16T07:09:58;9.0;71.0
26641;DHT22;14269;47.358;0.724;2023-04-16T07:12:30;9.0;71.0
26641;DHT22;14269;47.358;0.724;2023-04-16T07:15:02;9.0;71.0
26641;DHT22;14269;47.358;0.724;2023-04-16T07:17:33;10.0;70.0
26641;DHT22;14269;47.358;0.724;2023-04-16T07:20:06;10.0;70.0
26641;DHT22;14269;47.358;0.724;2023-04-16T07:22:46;10.0;70.0
26641;DHT22;14269;47.358;0.724;2023-04-16T07:25:18;10.0;69.0
26641;DHT22;14269;47.358;0.724;2023-04-16T07:27:50;10.0;69.0
26641;DHT22;14269;47.358;0.724;2023-04-16T07:30:21;10.0;69.0
26641;DHT22;14269;47.358;0.724;2023-04-16T07:32:54;10.0;69.0
26641;DHT22;14269;47.358;0.724;2023-04-16T07:35:35;10.0;67.0
26641;DHT22;14269;47.358;0.724;2023-04-16T07:38:06;10.0;67.0
26641;DHT22;14269;47.358;0.724;2023-04-16T07:40:38;10.0;67.0
26641;DHT22;14269;47.358;0.724;2023-04-16T07:43:10;11.0;67.0
26641;DHT22;14269;47.358;0.724;2023-04-16T07:45:41;11.0;66.0
26641;DHT22;14269;47.358;0.724;2023-04-16T07:48:13;11.0;66.0
26641;DHT22;14269;47.358;0.724;2023-04-16T07:50:45;11.0;65.0
26641;DHT22;14269;47.358;0.724;2023-04-16T07:53:16;11.0;63.0
26641;DHT22;14269;47.358;0.724;2023-04-16T07:55:48;11.0;64.0
26641;DHT22;14269;47.358;0.724;2023-04-16T07:58:20;11.0;64.0
26641;DHT22;14269;47.358;0.724;2023-04-16T08:00:51;11.0;63.0
26641;DHT22;14269;47.358;0.724;2023-04-16T08:03:23;11.0;63.0
26641;DHT22;14269;47.358;0.724;2023-04-16T08:05:54;11.0;63.0
26641;DHT22;14269;47.358;0.724;2023-04-16T08:08:26;11.0;63.0
26641;DHT22;14269;47.358;0.724;2023-04-16T08:10:59;11.0;63.0
26641;DHT22;14269;47.358;0.724;2023-04-16T08:13:29;11.0;63.0
26641;DHT22;14269;47.358;0.724;2023-04-16T08:16:01;12.0;61.0
26641;DHT22;14269;47.358;0.724;2023-04-16T08:18:33;12.0;61.0
26641;DHT22;14269;47.358;0.724;2023-04-16T08:21:05;12.0;60.0
26641;DHT22;14269;47.358;0.724;2023-04-16T08:23:36;12.0;59.0
26641;DHT22;14269;47.358;0.724;2023-04-16T08:26:08;12.0;59.0
26641;DHT22;14269;47.358;0.724;2023-04-16T08:28:39;12.0;60.0
26641;DHT22;14269;47.358;0.724;2023-04-16T08:31:11;12.0;57.0
26641;DHT22;14269;47.358;0.724;2023-04-16T08:33:43;12.0;58.0
26641;DHT22;14269;47.358;0.724;2023-04-16T08:36:14;12.0;59.0
26641;DHT22;14269;47.358;0.724;2023-04-16T08:38:46;12.0;56.0
26641;DHT22;14269;47.358;0.724;2023-04-16T08:41:21;12.0;58.0
26641;DHT22;14269;47.358;0.724;2023-04-16T08:44:03;13.0;56.0
26641;DHT22;14269;47.358;0.724;2023-04-16T08:46:41;13.0;56.0
26641;DHT22;14269;47.358;0.724;2023-04-16T08:49:24;13.0;56.0
26641;DHT22;14269;47.358;0.724;2023-04-16T08:52:05;13.0;56.0
26641;DHT22;14269;47.358;0.724;2023-04-16T08:54:54;13.0;54.0
26641;DHT22;14269;47.358;0.724;2023-04-16T08:57:32;13.0;55.0
26641;DHT22;14269;47.358;0.724;2023-04-16T09:00:11;13.0;53.0
26641;DHT22;14269;47.358;0.724;2023-04-16T09:02:52;13.0;55.0
26641;DHT22;14269;47.358;0.724;2023-04-16T09:05:24;13.0;55.0
26641;DHT22;14269;47.358;0.724;2023-04-16T09:08:05;13.0;54.0
26641;DHT22;14269;47.358;0.724;2023-04-16T09:10:37;13.0;54.0
26641;DHT22;14269;47.358;0.724;2023-04-16T09:13:10;13.0;53.0
26641;DHT22;14269;47.358;0.724;2023-04-16T09:15:51;13.0;53.0
26641;DHT22;14269;47.358;0.724;2023-04-16T09:18:32;13.0;51.0
26641;DHT22;14269;47.358;0.724;2023-04-16T09:21:04;13.0;50.0
26641;DHT22;14269;47.358;0.724;2023-04-16T09:23:46;14.0;51.0
26641;DHT22;14269;47.358;0.724;2023-04-16T09:26:17;14.0;50.0
26641;DHT22;14269;47.358;0.724;2023-04-16T09:28:50;14.0;50.0
26641;DHT22;14269;47.358;0.724;2023-04-16T09:31:30;14.0;47.0
26641;DHT22;14269;47.358;0.724;2023-04-16T09:34:03;14.0;47.0
26641;DHT22;14269;47.358;0.724;2023-04-16T09:36:44;14.0;49.0
26641;DHT22;14269;47.358;0.724;2023-04-16T09:39:18;14.0;50.0
26641;DHT22;14269;47.358;0.724;2023-04-16T09:41:57;14.0;49.0
26641;DHT22;14269;47.358;0.724;2023-04-16T09:44:34;14.0;47.0
26641;DHT22;14269;47.358;0.724;2023-04-16T09:47:11;15.0;48.0
26641;DHT22;14269;47.358;0.724;2023-04-16T09:49:43;15.0;48.0
26641;DHT22;14269;47.358;0.724;2023-04-16T09:52:15;15.0;47.0
26641;DHT22;14269;47.358;0.724;2023-04-16T09:54:55;15.0;49.0
26641;DHT22;14269;47.358;0.724;2023-04-16T09:57:28;15.0;48.0
26641;DHT22;14269;47.358;0.724;2023-04-16T10:00:02;15.0;48.0
26641;DHT22;14269;47.358;0.724;2023-04-16T10:02:41;15.0;47.0
26641;DHT22;14269;47.358;0.724;2023-04-16T10:05:15;15.0;48.0
26641;DHT22;14269;47.358;0.724;2023-04-16T10:07:59;15.0;47.0
26641;DHT22;14269;47.358;0.724;2023-04-16T10:10:36;15.0;46.0
26641;DHT22;14269;47.358;0.724;2023-04-16T10:13:07;15.0;45.0
26641;DHT22;14269;47.358;0.724;2023-04-16T10:15:39;15.0;44.0
26641;DHT22;14269;47.358;0.724;2023-04-16T10:18:11;15.0;45.0
26641;DHT22;14269;47.358;0.724;2023-04-16T10:20:53;15.0;45.0
26641;DHT22;14269;47.358;0.724;2023-04-16T10:23:25;15.0;44.0
26641;DHT22;14269;47.358;0.724;2023-04-16T10:25:57;15.0;44.0
26641;DHT22;14269;47.358;0.724;2023-04-16T10:28:38;15.0;46.0
26641;DHT22;14269;47.358;0.724;2023-04-16T10:31:19;16.0;41.0
26641;DHT22;14269;47.358;0.724;2023-04-16T10:33:51;16.0;42.0
26641;DHT22;14269;47.358;0.724;2023-04-16T10:36:24;16.0;40.0
26641;DHT22;14269;47.358;0.724;2023-04-16T10:39:09;16.0;41.0
26641;DHT22;14269;47.358;0.724;2023-04-16T10:41:46;16.0;43.0
26641;DHT22;14269;47.358;0.724;2023-04-16T10:44:18;17.0;41.0
26641;DHT22;14269;47.358;0.724;2023-04-16T10:46:49;17.0;41.0
26641;DHT22;14269;47.358;0.724;2023-04-16T10:49:23;17.0;43.0
26641;DHT22;14269;47.358;0.724;2023-04-16T10:52:08;17.0;39.0
26641;DHT22;14269;47.358;0.724;2023-04-16T10:54:46;18.0;41.0
26641;DHT22;14269;47.358;0.724;2023-04-16T10:57:28;18.0;39.0
26641;DHT22;14269;47.358;0.724;2023-04-16T11:00:21;18.0;39.0
26641;DHT22;14269;47.358;0.724;2023-04-16T11:03:01;18.0;38.0
26641;DHT22;14269;47.358;0.724;2023-04-16T11:05:45;18.0;37.0
26641;DHT22;14269;47.358;0.724;2023-04-16T11:08:23;19.0;39.0
26641;DHT22;14269;47.358;0.724;2023-04-16T11:10:57;18.0;37.0
26641;DHT22;14269;47.358;0.724;2023-04-16T11:13:37;18.0;37.0
26641;DHT22;14269;47.358;0.724;2023-04-16T11:16:09;19.0;37.0
26641;DHT22;14269;47.358;0.724;2023-04-16T11:18:40;18.0;39.0
26641;DHT22;14269;47.358;0.724;2023-04-16T11:21:12;19.0;37.0
26641;DHT22;14269;47.358;0.724;2023-04-16T11:23:46;19.0;36.0
26641;DHT22;14269;47.358;0.724;2023-04-16T11:26:27;19.0;34.0
26641;DHT22;14269;47.358;0.724;2023-04-16T11:29:13;19.0;39.0
26641;DHT22;14269;47.358;0.724;2023-04-16T11:31:49;19.0;36.0
26641;DHT22;14269;47.358;0.724;2023-04-16T11:34:31;19.0;37.0
26641;DHT22;14269;47.358;0.724;2023-04-16T11:37:02;19.0;35.0
26641;DHT22;14269;47.358;0.724;2023-04-16T11:39:46;19.0;37.0
26641;DHT22;14269;47.358;0.724;2023-04-16T11:42:27;19.0;37.0
26641;DHT22;14269;47.358;0.724;2023-04-16T11:45:09;19.0;36.0
26641;DHT22;14269;47.358;0.724;2023-04-16T11:47:52;18.0;39.0
26641;DHT22;14269;47.358;0.724;2023-04-16T11:50:31;18.0;39.0
26641;DHT22;14269;47.358;0.724;2023-04-16T11:53:03;18.0;40.0
26641;DHT22;14269;47.358;0.724;2023-04-16T11:55:44;18.0;40.0
26641;DHT22;14269;47.358;0.724;2023-04-16T11:58:16;18.0;38.0
26641;DHT22;14269;47.358;0.724;2023-04-16T12:00:48;18.0;39.0
26641;DHT22;14269;47.358;0.724;2023-04-16T12:03:38;18.0;40.0
26641;DHT22;14269;47.358;0.724;2023-04-16T12:06:11;18.0;41.0
26641;DHT22;14269;47.358;0.724;2023-04-16T12:08:43;18.0;40.0
26641;DHT22;14269;47.358;0.724;2023-04-16T12:11:15;18.0;40.0
26641;DHT22;14269;47.358;0.724;2023-04-16T12:14:06;18.0;42.0
26641;DHT22;14269;47.358;0.724;2023-04-16T12:16:38;18.0;39.0
26641;DHT22;14269;47.358;0.724;2023-04-16T12:19:11;18.0;41.0
26641;DHT22;14269;47.358;0.724;2023-04-16T12:21:51;18.0;41.0
26641;DHT22;14269;47.358;0.724;2023-04-16T12:24:35;18.0;41.0
26641;DHT22;14269;47.358;0.724;2023-04-16T12:27:15;18.0;40.0
26641;DHT22;14269;47.358;0.724;2023-04-16T12:30:02;18.0;40.0
26641;DHT22;14269;47.358;0.724;2023-04-16T12:32:39;18.0;40.0
26641;DHT22;14269;47.358;0.724;2023-04-16T12:35:10;18.0;41.0
26641;DHT22;14269;47.358;0.724;2023-04-16T12:37:41;18.0;40.0
26641;DHT22;14269;47.358;0.724;2023-04-16T12:40:13;18.0;41.0
26641;DHT22;14269;47.358;0.724;2023-04-16T12:42:45;18.0;41.0
26641;DHT22;14269;47.358;0.724;2023-04-16T12:45:16;18.0;40.0
26641;DHT22;14269;47.358;0.724;2023-04-16T12:47:49;18.0;42.0
26641;DHT22;14269;47.358;0.724;2023-04-16T12:50:20;18.0;43.0
26641;DHT22;14269;47.358;0.724;2023-04-16T12:52:51;18.0;42.0
26641;DHT22;14269;47.358;0.724;2023-04-16T12:55:23;18.0;40.0
26641;DHT22;14269;47.358;0.724;2023-04-16T12:57:55;18.0;42.0
26641;DHT22;14269;47.358;0.724;2023-04-16T13:00:26;18.0;42.0
26641;DHT22;14269;47.358;0.724;2023-04-16T13:02:58;18.0;41.0
26641;DHT22;14269;47.358;0.724;2023-04-16T13:05:30;18.0;41.0
26641;DHT22;14269;47.358;0.724;2023-04-16T13:08:01;18.0;41.0
26641;DHT22;14269;47.358;0.724;2023-04-16T13:10:34;18.0;42.0
26641;DHT22;14269;47.358;0.724;2023-04-16T13:13:05;18.0;41.0
26641;DHT22;14269;47.358;0.724;2023-04-16T13:15:36;18.0;44.0
26641;DHT22;14269;47.358;0.724;2023-04-16T13:18:08;18.0;41.0
26641;DHT22;14269;47.358;0.724;2023-04-16T13:20:39;18.0;42.0
26641;DHT22;14269;47.358;0.724;2023-04-16T13:23:11;18.0;42.0
26641;DHT22;14269;47.358;0.724;2023-04-16T13:25:43;18.0;41.0
26641;DHT22;14269;47.358;0.724;2023-04-16T13:28:14;18.0;41.0
26641;DHT22;14269;47.358;0.724;2023-04-16T13:30:46;18.0;43.0
26641;DHT22;14269;47.358;0.724;2023-04-16T13:33:19;18.0;41.0
26641;DHT22;14269;47.358;0.724;2023-04-16T13:36:00;18.0;42.0
26641;DHT22;14269;47.358;0.724;2023-04-16T13:38:31;18.0;43.0
26641;DHT22;14269;47.358;0.724;2023-04-16T13:41:03;18.0;41.0
26641;DHT22;14269;47.358;0.724;2023-04-16T13:43:45;18.0;41.0
26641;DHT22;14269;47.358;0.724;2023-04-16T13:46:17;18.0;41.0
26641;DHT22;14269;47.358;0.724;2023-04-16T13:48:58;18.0;40.0
26641;DHT22;14269;47.358;0.724;2023-04-16T13:51:31;18.0;41.0
26641;DHT22;14269;47.358;0.724;2023-04-16T13:54:01;18.0;42.0
26641;DHT22;14269;47.358;0.724;2023-04-16T13:56:33;18.0;40.0
26641;DHT22;14269;47.358;0.724;2023-04-16T13:59:05;18.0;41.0
26641;DHT22;14269;47.358;0.724;2023-04-16T14:01:36;18.0;41.0
26641;DHT22;14269;47.358;0.724;2023-04-16T14:04:08;18.0;42.0
26641;DHT22;14269;47.358;0.724;2023-04-16T14:06:39;18.0;43.0
26641;DHT22;14269;47.358;0.724;2023-04-16T14:09:11;18.0;43.0
26641;DHT22;14269;47.358;0.724;2023-04-16T14:11:43;18.0;39.0
26641;DHT22;14269;47.358;0.724;2023-04-16T14:14:14;18.0;44.0
26641;DHT22;14269;47.358;0.724;2023-04-16T14:16:46;18.0;43.0
26641;DHT22;14269;47.358;0.724;2023-04-16T14:19:18;18.0;43.0
26641;DHT22;14269;47.358;0.724;2023-04-16T14:21:49;17.0;43.0
26641;DHT22;14269;47.358;0.724;2023-04-16T14:24:21;17.0;44.0
26641;DHT22;14269;47.358;0.724;2023-04-16T14:26:53;17.0;43.0
26641;DHT22;14269;47.358;0.724;2023-04-16T14:29:24;17.0;43.0
26641;DHT22;14269;47.358;0.724;2023-04-16T14:31:56;17.0;43.0
26641;DHT22;14269;47.358;0.724;2023-04-16T14:34:28;17.0;43.0
26641;DHT22;14269;47.358;0.724;2023-04-16T14:36:59;17.0;44.0
26641;DHT22;14269;47.358;0.724;2023-04-16T14:39:31;18.0;43.0
26641;DHT22;14269;47.358;0.724;2023-04-16T14:42:03;18.0;43.0
26641;DHT22;14269;47.358;0.724;2023-04-16T14:44:34;18.0;43.0
26641;DHT22;14269;47.358;0.724;2023-04-16T14:47:07;18.0;41.0
26641;DHT22;14269;47.358;0.724;2023-04-16T14:49:48;18.0;42.0
26641;DHT22;14269;47.358;0.724;2023-04-16T14:52:19;18.0;41.0
26641;DHT22;14269;47.358;0.724;2023-04-16T14:54:51;19.0;41.0
26641;DHT22;14269;47.358;0.724;2023-04-16T14:57:33;19.0;41.0
26641;DHT22;14269;47.358;0.724;2023-04-16T15:00:07;19.0;42.0
26641;DHT22;14269;47.358;0.724;2023-04-16T15:02:47;18.0;40.0
26641;DHT22;14269;47.358;0.724;2023-04-16T15:05:18;18.0;40.0
26641;DHT22;14269;47.358;0.724;2023-04-16T15:07:49;18.0;41.0
26641;DHT22;14269;47.358;0.724;2023-04-16T15:10:21;19.0;41.0
26641;DHT22;14269;47.358;0.724;2023-04-16T15:12:53;19.0;40.0
26641;DHT22;14269;47.358;0.724;2023-04-16T15:15:24;18.0;42.0
26641;DHT22;14269;47.358;0.724;2023-04-16T15:17:56;18.0;42.0
26641;DHT22;14269;47.358;0.724;2023-04-16T15:20:28;18.0;42.0
26641;DHT22;14269;47.358;0.724;2023-04-16T15:22:59;18.0;42.0
26641;DHT22;14269;47.358;0.724;2023-04-16T15:25:31;19.0;41.0
26641;DHT22;14269;47.358;0.724;2023-04-16T15:28:03;19.0;41.0
26641;DHT22;14269;47.358;0.724;2023-04-16T15:30:35;19.0;42.0
26641;DHT22;14269;47.358;0.724;2023-04-16T15:33:16;19.0;41.0
26641;DHT22;14269;47.358;0.724;2023-04-16T15:35:48;19.0;40.0
26641;DHT22;14269;47.358;0.724;2023-04-16T15:38:30;19.0;39.0
26641;DHT22;14269;47.358;0.724;2023-04-16T15:41:01;18.0;39.0
26641;DHT22;14269;47.358;0.724;2023-04-16T15:43:33;18.0;41.0
26641;DHT22;14269;47.358;0.724;2023-04-16T15:46:05;18.0;41.0
26641;DHT22;14269;47.358;0.724;2023-04-16T15:48:46;18.0;41.0
26641;DHT22;14269;47.358;0.724;2023-04-16T15:51:18;18.0;40.0
26641;DHT22;14269;47.358;0.724;2023-04-16T15:53:49;18.0;41.0
26641;DHT22;14269;47.358;0.724;2023-04-16T15:56:21;18.0;41.0
26641;DHT22;14269;47.358;0.724;2023-04-16T15:58:53;18.0;42.0
26641;DHT22;14269;47.358;0.724;2023-04-16T16:01:24;18.0;42.0
26641;DHT22;14269;47.358;0.724;2023-04-16T16:03:56;17.0;42.0
26641;DHT22;14269;47.358;0.724;2023-04-16T16:06:28;17.0;43.0
26641;DHT22;14269;47.358;0.724;2023-04-16T16:08:59;18.0;43.0
26641;DHT22;14269;47.358;0.724;2023-04-16T16:11:31;18.0;42.0
26641;DHT22;14269;47.358;0.724;2023-04-16T16:14:03;18.0;42.0
26641;DHT22;14269;47.358;0.724;2023-04-16T16:16:34;18.0;43.0
26641;DHT22;14269;47.358;0.724;2023-04-16T16:19:06;17.0;43.0
26641;DHT22;14269;47.358;0.724;2023-04-16T16:21:37;18.0;42.0
26641;DHT22;14269;47.358;0.724;2023-04-16T16:24:09;17.0;43.0
26641;DHT22;14269;47.358;0.724;2023-04-16T16:26:41;17.0;45.0
26641;DHT22;14269;47.358;0.724;2023-04-16T16:29:12;17.0;46.0
26641;DHT22;14269;47.358;0.724;2023-04-16T16:31:45;17.0;44.0
26641;DHT22;14269;47.358;0.724;2023-04-16T16:34:27;17.0;44.0
26641;DHT22;14269;47.358;0.724;2023-04-16T16:36:57;17.0;44.0
26641;DHT22;14269;47.358;0.724;2023-04-16T16:39:29;17.0;44.0
26641;DHT22;14269;47.358;0.724;2023-04-16T16:42:01;17.0;44.0
26641;DHT22;14269;47.358;0.724;2023-04-16T16:44:32;17.0;44.0
26641;DHT22;14269;47.358;0.724;2023-04-16T16:47:04;17.0;44.0
26641;DHT22;14269;47.358;0.724;2023-04-16T16:49:36;17.0;45.0